Time;durP1;ratioP1;P1;durP2;ratioP2;P2;SDS_P1;SDS_P2;PMS_P1;PMS_P2;Temp;Humidity;BMP_temperature;BMP_pressure;BME280_temperature;BME280_humidity;BME280_pressure;Samples;Min_cycle;Max_cycle;Signal;HPM_P1;HPM_P2
2023/11/06 00:00:15;;;;;;;8.90;2.28;;;17.30;53.60;;;;;;5071410;28;20258;-60
2023/11/06 00:02:42;;;;;;;6.22;1.95;;;17.30;53.70;;;;;;5071569;28;20288;-60
2023/11/06 00:05:10;;;;;;;7.93;2.20;;;17.30;53.60;;;;;;5071908;28;20221;-60
2023/11/06 00:07:38;;;;;;;8.02;2.47;;;17.30;53.60;;;;;;5071372;28;20223;-58
2023/11/06 00:10:08;;;;;;;9.80;1.80;;;17.30;53.60;;;;;;5073185;28;20211;-58
2023/11/06 00:12:37;;;;;;;6.07;2.10;;;17.30;53.70;;;;;;5075114;28;20277;-58
2023/11/06 00:15:05;;;;;;;9.55;2.33;;;17.30;53.60;;;;;;5074778;28;20215;-59
2023/11/06 00:17:32;;;;;;;10.50;2.70;;;17.30;53.70;;;;;;5075166;28;20274;-60
2023/11/06 00:19:59;;;;;;;6.97;2.20;;;17.30;53.70;;;;;;5075203;28;20244;-60
2023/11/06 00:22:26;;;;;;;5.63;1.60;;;17.30;53.70;;;;;;5074843;28;20328;-59
2023/11/06 00:24:53;;;;;;;11.50;2.10;;;17.30;53.70;;;;;;5075327;28;20570;-60
2023/11/06 00:27:20;;;;;;;6.35;1.80;;;17.30;53.70;;;;;;5074733;28;20704;-60
2023/11/06 00:29:48;;;;;;;13.05;2.47;;;17.30;53.70;;;;;;5074839;28;20218;-59
2023/11/06 00:32:15;;;;;;;6.75;2.15;;;17.30;53.70;;;;;;5074929;28;20197;-58
2023/11/06 00:34:42;;;;;;;5.90;2.17;;;17.30;53.70;;;;;;5074994;28;20252;-60
2023/11/06 00:37:10;;;;;;;13.27;2.40;;;17.30;53.70;;;;;;5074279;28;20671;-59
2023/11/06 00:39:37;;;;;;;6.53;1.90;;;17.30;54.40;;;;;;5074994;28;20280;-57
2023/11/06 00:42:05;;;;;;;7.50;2.17;;;17.30;53.70;;;;;;5074548;28;20756;-59
2023/11/06 00:44:32;;;;;;;6.63;1.63;;;17.30;53.70;;;;;;5074493;28;20302;-56
2023/11/06 00:47:00;;;;;;;8.05;2.50;;;17.30;53.70;;;;;;5074614;28;20214;-58
2023/11/06 00:49:27;;;;;;;6.78;1.90;;;17.30;53.70;;;;;;5074525;28;20229;-60
2023/11/06 00:51:54;;;;;;;8.70;2.05;;;17.30;53.70;;;;;;5073991;28;20240;-58
2023/11/06 00:54:21;;;;;;;8.73;2.45;;;17.30;53.60;;;;;;5074643;28;20250;-60
2023/11/06 00:56:49;;;;;;;6.30;1.83;;;17.30;53.70;;;;;;5074607;28;20274;-57
2023/11/06 00:59:16;;;;;;;7.55;1.95;;;17.30;53.60;;;;;;5074249;28;20218;-55
2023/11/06 01:01:44;;;;;;;5.15;1.83;;;17.30;53.70;;;;;;5074242;28;20223;-60
2023/11/06 01:04:12;;;;;;;7.47;2.20;;;17.30;53.60;;;;;;5074343;28;20214;-56
2023/11/06 01:06:39;;;;;;;7.13;2.08;;;17.30;53.50;;;;;;5073945;28;20318;-61
2023/11/06 01:09:07;;;;;;;4.57;1.65;;;17.30;54.20;;;;;;5073957;28;20701;-60
2023/11/06 01:11:35;;;;;;;5.00;1.77;;;17.20;53.50;;;;;;5074266;28;20190;-58
2023/11/06 01:14:02;;;;;;;6.97;1.77;;;17.20;53.50;;;;;;5073917;28;20218;-60
2023/11/06 01:16:29;;;;;;;8.00;1.70;;;17.20;53.50;;;;;;5074176;28;20569;-60
2023/11/06 01:18:55;;;;;;;6.65;1.70;;;17.30;53.50;;;;;;5074119;28;20214;-59
2023/11/06 01:21:24;;;;;;;5.90;1.83;;;17.20;53.50;;;;;;5073391;28;20649;-59
2023/11/06 01:23:51;;;;;;;7.40;2.05;;;17.20;53.50;;;;;;5073688;28;20261;-59
2023/11/06 01:26:17;;;;;;;5.32;1.70;;;17.20;53.50;;;;;;5073878;28;20210;-60
2023/11/06 01:28:44;;;;;;;7.50;1.73;;;17.20;53.50;;;;;;5073538;28;20218;-58
2023/11/06 01:31:11;;;;;;;4.45;1.60;;;17.20;53.50;;;;;;5073881;28;20218;-58
2023/11/06 01:33:38;;;;;;;6.60;1.85;;;17.20;53.50;;;;;;5073802;28;20305;-60
2023/11/06 01:36:08;;;;;;;7.63;1.80;;;17.20;53.50;;;;;;5073378;28;20561;-61
2023/11/06 01:38:37;;;;;;;5.70;2.00;;;17.20;53.50;;;;;;5073361;28;20213;-59
2023/11/06 01:41:05;;;;;;;6.55;1.85;;;17.20;53.50;;;;;;5073605;28;20187;-57
2023/11/06 01:43:32;;;;;;;7.28;2.03;;;17.20;53.50;;;;;;5072893;28;20190;-59
2023/11/06 01:45:59;;;;;;;6.60;1.85;;;17.20;53.50;;;;;;5073385;28;20195;-61
2023/11/06 01:48:29;;;;;;;6.32;2.00;;;17.20;53.50;;;;;;5073437;28;20197;-55
2023/11/06 01:50:57;;;;;;;5.47;1.77;;;17.20;53.50;;;;;;5072823;28;20190;-59
2023/11/06 01:53:26;;;;;;;7.00;1.80;;;17.20;53.50;;;;;;5073458;28;20201;-58
2023/11/06 01:55:55;;;;;;;6.72;1.80;;;17.20;53.50;;;;;;5073038;28;20278;-60
2023/11/06 01:58:23;;;;;;;6.30;1.80;;;17.20;53.50;;;;;;5072857;28;20194;-60
2023/11/06 02:00:51;;;;;;;6.00;1.98;;;17.20;53.50;;;;;;5073331;28;20635;-60
2023/11/06 02:03:18;;;;;;;7.10;2.20;;;17.20;53.50;;;;;;5072828;28;20235;-55
2023/11/06 02:05:46;;;;;;;7.25;2.08;;;17.10;53.50;;;;;;5073089;28;20198;-60
2023/11/06 02:08:15;;;;;;;6.43;2.00;;;17.20;53.60;;;;;;5073049;28;20218;-59
2023/11/06 02:10:44;;;;;;;5.45;1.92;;;17.10;53.50;;;;;;5073012;28;20211;-60
2023/11/06 02:13:12;;;;;;;4.93;1.95;;;17.20;54.30;;;;;;5072718;28;20190;-58
2023/11/06 02:15:41;;;;;;;5.38;2.00;;;17.20;53.60;;;;;;5072897;28;20307;-56
2023/11/06 02:18:08;;;;;;;5.63;1.80;;;17.20;53.60;;;;;;5072631;28;20191;-60
2023/11/06 02:20:37;;;;;;;4.80;1.88;;;17.20;53.60;;;;;;5072458;28;20218;-61
2023/11/06 02:23:08;;;;;;;5.63;2.13;;;17.20;53.60;;;;;;5072892;28;20191;-60
2023/11/06 02:25:35;;;;;;;6.22;1.90;;;17.10;53.60;;;;;;5073003;28;20215;-60
2023/11/06 02:28:04;;;;;;;5.50;2.17;;;17.20;53.70;;;;;;5072072;28;20301;-59
2023/11/06 02:30:31;;;;;;;8.30;1.90;;;17.10;53.60;;;;;;5072415;28;20306;-58
2023/11/06 02:32:58;;;;;;;5.75;1.98;;;17.10;53.60;;;;;;5072275;28;20252;-60
2023/11/06 02:35:25;;;;;;;7.57;2.03;;;17.10;53.60;;;;;;5072202;28;20696;-61
2023/11/06 02:37:53;;;;;;;5.05;1.70;;;17.10;53.60;;;;;;5072675;28;20191;-59
2023/11/06 02:40:21;;;;;;;5.38;1.70;;;17.10;53.60;;;;;;5072852;28;20221;-58
2023/11/06 02:42:48;;;;;;;8.13;1.77;;;17.10;54.10;;;;;;5072319;28;20191;-58
2023/11/06 02:45:15;;;;;;;7.13;2.25;;;17.10;53.60;;;;;;5072573;28;20221;-60
2023/11/06 02:47:42;;;;;;;5.88;2.13;;;17.10;53.60;;;;;;5072150;28;20210;-57
2023/11/06 02:50:11;;;;;;;8.00;2.00;;;17.10;53.60;;;;;;5072318;28;20217;-60
2023/11/06 02:52:39;;;;;;;4.43;1.67;;;17.10;53.60;;;;;;5072523;28;20187;-60
2023/11/06 02:55:07;;;;;;;4.60;1.60;;;17.10;53.60;;;;;;5072556;28;20217;-58
2023/11/06 02:57:35;;;;;;;5.75;1.90;;;17.10;53.60;;;;;;5071591;28;20191;-54
2023/11/06 03:00:06;;;;;;;4.10;1.60;;;17.10;53.60;;;;;;5066985;28;20294;-60
2023/11/06 03:02:34;;;;;;;8.07;2.15;;;17.10;53.60;;;;;;5052014;28;20285;-60
2023/11/06 03:05:03;;;;;;;2.90;1.48;;;17.10;53.60;;;;;;5051785;28;20219;-60
2023/11/06 03:07:30;;;;;;;6.18;1.67;;;17.10;53.60;;;;;;5052300;28;20219;-57
2023/11/06 03:09:57;;;;;;;7.70;2.00;;;17.10;54.20;;;;;;5052473;28;20300;-61
2023/11/06 03:12:24;;;;;;;5.38;1.50;;;17.10;53.60;;;;;;5051994;28;20275;-58
2023/11/06 03:14:52;;;;;;;4.82;1.70;;;17.10;53.60;;;;;;5052321;28;20302;-58
2023/11/06 03:17:19;;;;;;;5.70;1.48;;;17.10;53.60;;;;;;5052223;28;20270;-59
2023/11/06 03:19:46;;;;;;;5.82;1.48;;;17.10;53.60;;;;;;5051601;28;20302;-57
2023/11/06 03:22:13;;;;;;;6.15;1.90;;;17.10;53.60;;;;;;5051960;28;20566;-58
2023/11/06 03:24:40;;;;;;;4.32;1.60;;;17.10;53.60;;;;;;5051911;28;20723;-60
2023/11/06 03:27:08;;;;;;;5.88;1.77;;;17.10;53.60;;;;;;5051764;28;20661;-57
2023/11/06 03:29:35;;;;;;;7.00;1.70;;;17.10;53.60;;;;;;5052198;28;20230;-60
2023/11/06 03:32:04;;;;;;;5.50;1.67;;;17.10;53.60;;;;;;5051785;28;20245;-59
2023/11/06 03:34:31;;;;;;;8.23;1.83;;;17.10;53.60;;;;;;5051404;28;20307;-60
2023/11/06 03:36:58;;;;;;;4.68;1.50;;;17.10;53.60;;;;;;5051735;28;20546;-56
2023/11/06 03:39:25;;;;;;;4.80;1.70;;;17.10;53.60;;;;;;5052124;28;20215;-59
2023/11/06 03:41:52;;;;;;;3.97;1.55;;;17.10;53.60;;;;;;5051735;28;20265;-60
2023/11/06 03:44:20;;;;;;;5.45;1.50;;;17.10;53.60;;;;;;5052016;28;20215;-56
2023/11/06 03:46:48;;;;;;;5.65;1.60;;;17.10;53.60;;;;;;5055807;28;20243;-60
2023/11/06 03:49:16;;;;;;;5.95;1.90;;;17.10;53.60;;;;;;5055160;28;20216;-60
2023/11/06 03:51:43;;;;;;;6.20;1.67;;;17.10;53.60;;;;;;5055758;28;20202;-57
2023/11/06 03:54:10;;;;;;;5.82;1.80;;;17.10;53.60;;;;;;5055665;28;20215;-58
2023/11/06 03:56:37;;;;;;;4.80;1.52;;;17.10;53.60;;;;;;5055282;28;20566;-59
2023/11/06 03:59:04;;;;;;;4.95;2.00;;;17.10;53.60;;;;;;5055655;28;20219;-60
2023/11/06 04:01:34;;;;;;;4.75;1.60;;;17.10;53.60;;;;;;5055424;28;20191;-59
2023/11/06 04:04:01;;;;;;;3.28;1.50;;;17.10;53.60;;;;;;5055131;28;20224;-56
2023/11/06 04:06:29;;;;;;;6.22;1.60;;;17.10;53.60;;;;;;5055749;28;20273;-59
2023/11/06 04:08:57;;;;;;;3.78;1.60;;;17.00;53.60;;;;;;5055081;28;20325;-58
2023/11/06 04:11:25;;;;;;;4.25;1.48;;;17.10;53.70;;;;;;5054788;28;20188;-58
2023/11/06 04:13:52;;;;;;;5.57;1.55;;;17.10;53.70;;;;;;5055264;28;20196;-60
2023/11/06 04:16:20;;;;;;;5.72;1.98;;;17.10;53.70;;;;;;5055305;28;20278;-58
2023/11/06 04:18:47;;;;;;;4.30;1.40;;;17.10;53.60;;;;;;5054573;28;20279;-58
2023/11/06 04:21:16;;;;;;;4.88;1.60;;;17.10;53.70;;;;;;5055258;28;20187;-60
2023/11/06 04:23:45;;;;;;;5.60;1.52;;;17.00;53.60;;;;;;5055062;28;20267;-60
2023/11/06 04:26:12;;;;;;;4.78;1.65;;;17.10;53.70;;;;;;5054814;28;20560;-59
2023/11/06 04:28:40;;;;;;;4.38;1.60;;;17.00;53.60;;;;;;5055262;28;20234;-60
2023/11/06 04:31:08;;;;;;;5.00;1.55;;;17.10;53.70;;;;;;5055097;28;20222;-60
2023/11/06 04:33:35;;;;;;;5.85;1.60;;;17.00;53.60;;;;;;5054618;28;20192;-60
2023/11/06 04:36:02;;;;;;;4.07;1.65;;;17.10;53.70;;;;;;5055136;28;20219;-60
2023/11/06 04:38:29;;;;;;;4.28;1.60;;;17.00;53.70;;;;;;5054953;28;20241;-57
2023/11/06 04:40:58;;;;;;;5.05;1.90;;;17.00;53.60;;;;;;5054523;28;20219;-61
2023/11/06 04:43:25;;;;;;;6.35;1.70;;;17.00;53.70;;;;;;5054858;28;20188;-59
2023/11/06 04:45:52;;;;;;;4.25;1.75;;;17.00;53.70;;;;;;5054725;28;20215;-58
2023/11/06 04:48:19;;;;;;;4.32;1.63;;;17.00;53.70;;;;;;5053971;28;20269;-58
2023/11/06 04:50:46;;;;;;;4.72;1.30;;;17.00;53.70;;;;;;5054887;28;20254;-56
2023/11/06 04:53:13;;;;;;;4.38;1.42;;;17.10;53.80;;;;;;5054685;28;20260;-60
2023/11/06 04:55:39;;;;;;;5.10;1.80;;;17.10;53.80;;;;;;5054043;28;20216;-58
2023/11/06 04:58:08;;;;;;;6.18;1.85;;;17.00;53.70;;;;;;5054245;28;20559;-58
2023/11/06 05:00:35;;;;;;;3.63;1.40;;;17.00;53.70;;;;;;5054677;28;20224;-59
2023/11/06 05:03:02;;;;;;;4.35;1.48;;;17.00;53.70;;;;;;5053838;28;20306;-56
2023/11/06 05:05:29;;;;;;;3.72;1.30;;;17.00;53.70;;;;;;5054558;28;20212;-58
2023/11/06 05:07:56;;;;;;;2.78;1.23;;;17.00;53.70;;;;;;5054291;28;20255;-60
2023/11/06 05:10:23;;;;;;;3.50;1.42;;;17.10;53.80;;;;;;5054128;28;20227;-60
2023/11/06 05:12:50;;;;;;;2.17;1.08;;;17.00;53.70;;;;;;5054270;28;20205;-57
2023/11/06 05:15:19;;;;;;;3.25;1.30;;;17.00;53.80;;;;;;5054327;28;20234;-56
2023/11/06 05:17:46;;;;;;;5.65;1.33;;;17.00;53.80;;;;;;5053446;28;20191;-57
2023/11/06 05:20:14;;;;;;;6.57;1.75;;;17.00;53.80;;;;;;5054241;28;20222;-59
2023/11/06 05:22:41;;;;;;;3.85;1.50;;;17.00;53.80;;;;;;5054109;28;20192;-57
2023/11/06 05:25:09;;;;;;;5.53;1.77;;;17.00;53.80;;;;;;5053696;28;20302;-58
2023/11/06 05:27:36;;;;;;;5.47;2.17;;;17.00;53.80;;;;;;5053604;28;20716;-58
2023/11/06 05:30:04;;;;;;;4.75;1.60;;;17.00;53.90;;;;;;5053988;28;20243;-60
2023/11/06 05:32:32;;;;;;;4.53;1.25;;;17.00;53.90;;;;;;5053716;28;20245;-55
2023/11/06 05:35:00;;;;;;;4.57;1.83;;;17.00;53.90;;;;;;5053549;28;20662;-59
2023/11/06 05:37:27;;;;;;;2.85;1.50;;;17.00;53.90;;;;;;5053869;28;20199;-58
2023/11/06 05:39:54;;;;;;;4.72;1.40;;;17.00;53.90;;;;;;5053164;28;20768;-59
2023/11/06 05:42:21;;;;;;;4.95;1.30;;;17.00;53.90;;;;;;5053743;28;20223;-60
2023/11/06 05:44:48;;;;;;;4.55;1.30;;;17.00;53.90;;;;;;5053596;28;20216;-60
2023/11/06 05:47:15;;;;;;;5.30;1.50;;;17.10;54.10;;;;;;5052822;28;20731;-61
2023/11/06 05:49:44;;;;;;;3.28;1.10;;;17.10;54.00;;;;;;5053329;28;20215;-58
2023/11/06 05:52:13;;;;;;;6.07;1.50;;;17.20;54.00;;;;;;5053580;28;20195;-57
2023/11/06 05:54:41;;;;;;;4.32;1.38;;;17.40;54.00;;;;;;5052798;28;20254;-58
2023/11/06 05:57:08;;;;;;;2.17;1.30;;;17.50;53.70;;;;;;5053403;28;20203;-60
2023/11/06 05:59:34;;;;;;;5.28;1.63;;;17.60;53.60;;;;;;5053414;28;20310;-60
2023/11/06 06:02:01;;;;;;;5.97;1.30;;;17.70;53.70;;;;;;5052419;28;20735;-58
2023/11/06 06:04:30;;;;;;;4.40;1.60;;;17.80;53.50;;;;;;5053139;28;20250;-60
2023/11/06 06:06:59;;;;;;;2.58;1.20;;;17.80;53.30;;;;;;5052415;28;20604;-59
2023/11/06 06:09:26;;;;;;;3.88;1.27;;;17.90;53.20;;;;;;5052664;28;20254;-59
2023/11/06 06:11:53;;;;;;;3.53;1.50;;;18.00;53.20;;;;;;5052872;28;20650;-59
2023/11/06 06:14:21;;;;;;;3.25;1.40;;;18.10;53.10;;;;;;5052779;28;20658;-58
2023/11/06 06:16:49;;;;;;;3.95;1.20;;;18.10;52.90;;;;;;5052317;28;20661;-57
2023/11/06 06:19:16;;;;;;;3.47;1.20;;;18.20;52.80;;;;;;5052952;28;20231;-59
2023/11/06 06:21:43;;;;;;;4.35;1.30;;;18.30;52.70;;;;;;5052810;28;20616;-61
2023/11/06 06:24:12;;;;;;;3.00;1.35;;;18.30;52.60;;;;;;5052530;28;20191;-61
2023/11/06 06:26:39;;;;;;;2.70;0.95;;;18.40;52.50;;;;;;5052931;28;20270;-60
2023/11/06 06:29:06;;;;;;;3.47;1.10;;;18.50;52.40;;;;;;5052734;28;20298;-60
2023/11/06 06:31:33;;;;;;;2.05;1.27;;;18.50;52.10;;;;;;5052401;28;20194;-59
2023/11/06 06:34:00;;;;;;;2.45;1.00;;;18.50;52.00;;;;;;5052563;28;20270;-60
2023/11/06 06:36:27;;;;;;;1.95;0.93;;;18.50;52.00;;;;;;5052747;28;20214;-58
2023/11/06 06:38:56;;;;;;;2.97;1.10;;;18.50;52.10;;;;;;5052343;28;20200;-59
2023/11/06 06:41:25;;;;;;;3.20;1.08;;;18.50;52.10;;;;;;5052687;28;20195;-61
2023/11/06 06:43:52;;;;;;;2.35;1.30;;;18.50;52.20;;;;;;5052597;28;20196;-60
2023/11/06 06:46:19;;;;;;;5.35;1.00;;;18.50;52.20;;;;;;5052231;28;20223;-58
2023/11/06 06:48:47;;;;;;;3.63;0.98;;;18.50;52.30;;;;;;5052495;28;20298;-60
2023/11/06 06:51:13;;;;;;;3.03;1.20;;;18.40;52.30;;;;;;5052617;28;20226;-60
2023/11/06 06:53:42;;;;;;;2.17;0.88;;;18.30;52.40;;;;;;5052119;28;20203;-60
2023/11/06 06:56:09;;;;;;;5.55;1.52;;;18.30;52.40;;;;;;5052673;28;20223;-61
2023/11/06 06:58:38;;;;;;;3.20;1.10;;;18.30;52.50;;;;;;5052092;28;20221;-59
2023/11/06 07:01:06;;;;;;;2.67;1.20;;;18.20;52.50;;;;;;5052307;28;20239;-61
2023/11/06 07:03:35;;;;;;;2.03;1.17;;;18.20;52.70;;;;;;5051867;28;20263;-60
2023/11/06 07:06:03;;;;;;;2.20;0.93;;;18.10;52.70;;;;;;5052533;28;20222;-60
2023/11/06 07:08:30;;;;;;;2.53;1.10;;;18.10;52.80;;;;;;5051963;28;20314;-61
2023/11/06 07:10:57;;;;;;;4.03;1.20;;;18.00;52.80;;;;;;5052433;28;20223;-59
2023/11/06 07:13:24;;;;;;;2.45;1.33;;;18.00;52.90;;;;;;5052317;28;20200;-61
2023/11/06 07:15:53;;;;;;;3.58;1.13;;;17.90;52.90;;;;;;5051645;28;20273;-61
2023/11/06 07:18:20;;;;;;;4.75;1.00;;;17.90;53.00;;;;;;5052614;28;20271;-60
2023/11/06 07:20:47;;;;;;;3.35;1.10;;;17.90;53.10;;;;;;5056471;28;20222;-61
2023/11/06 07:23:14;;;;;;;1.75;1.00;;;17.80;53.10;;;;;;5055639;28;20188;-58
2023/11/06 07:25:41;;;;;;;4.30;1.25;;;17.80;53.20;;;;;;5056387;28;20307;-60
2023/11/06 07:28:08;;;;;;;3.08;1.30;;;17.80;53.20;;;;;;5055861;28;20254;-59
2023/11/06 07:30:35;;;;;;;3.17;1.40;;;17.70;53.20;;;;;;5056001;28;20218;-59
2023/11/06 07:33:03;;;;;;;3.97;1.20;;;17.70;53.20;;;;;;5056128;28;20215;-60
2023/11/06 07:35:30;;;;;;;4.05;1.00;;;17.70;53.30;;;;;;5056178;28;20220;-61
2023/11/06 07:37:57;;;;;;;2.15;0.90;;;17.70;53.30;;;;;;5055730;28;20215;-60
2023/11/06 07:40:24;;;;;;;1.77;1.10;;;17.70;53.30;;;;;;5056081;28;20222;-60
2023/11/06 07:42:51;;;;;;;4.20;1.35;;;17.70;53.40;;;;;;5055990;28;20278;-60
2023/11/06 07:45:18;;;;;;;1.58;1.10;;;17.70;53.40;;;;;;5055456;28;20298;-58
2023/11/06 07:47:46;;;;;;;2.50;1.20;;;17.70;53.50;;;;;;5055784;28;20241;-59
2023/11/06 07:50:15;;;;;;;3.05;1.08;;;17.60;53.40;;;;;;5055585;28;20211;-60
2023/11/06 07:52:41;;;;;;;3.03;1.25;;;17.70;53.60;;;;;;5055422;28;20222;-60
2023/11/06 07:55:09;;;;;;;2.58;1.00;;;17.70;53.70;;;;;;5055455;28;20701;-60
2023/11/06 07:57:36;;;;;;;2.00;0.90;;;17.70;53.60;;;;;;5055602;28;20206;-60
2023/11/06 08:00:03;;;;;;;4.22;1.10;;;17.80;53.60;;;;;;5054988;28;20219;-58
2023/11/06 08:02:30;;;;;;;3.35;1.10;;;17.80;53.40;;;;;;5055321;28;20255;-60
2023/11/06 08:04:57;;;;;;;2.25;0.90;;;18.00;53.50;;;;;;5055737;28;20616;-60
2023/11/06 08:07:25;;;;;;;1.92;0.90;;;18.00;53.30;;;;;;5055234;28;20270;-59
2023/11/06 08:09:52;;;;;;;2.92;1.30;;;18.10;53.20;;;;;;5055490;28;20266;-59
2023/11/06 08:12:19;;;;;;;2.15;1.13;;;18.20;53.10;;;;;;5055450;28;20374;-59
2023/11/06 08:14:46;;;;;;;5.43;1.15;;;18.20;53.00;;;;;;5055177;28;20273;-57
2023/11/06 08:17:13;;;;;;;4.07;1.13;;;18.20;52.90;;;;;;5055276;28;20195;-60
2023/11/06 08:19:41;;;;;;;2.08;1.38;;;18.20;52.80;;;;;;5055370;28;20223;-60
2023/11/06 08:22:09;;;;;;;2.33;0.98;;;18.20;53.40;;;;;;5055009;28;20195;-59
2023/11/06 08:24:38;;;;;;;3.92;1.20;;;18.20;52.70;;;;;;5055137;28;20226;-60
2023/11/06 08:27:06;;;;;;;1.92;1.00;;;18.20;52.70;;;;;;5054946;28;20783;-59
2023/11/06 08:29:33;;;;;;;2.17;1.13;;;18.20;52.80;;;;;;5054485;28;20222;-59
2023/11/06 08:32:01;;;;;;;1.70;1.10;;;18.20;52.90;;;;;;5054340;28;20192;-60
2023/11/06 08:34:28;;;;;;;2.33;1.20;;;18.10;52.90;;;;;;5054949;28;20271;-60
2023/11/06 08:36:55;;;;;;;3.63;1.27;;;18.10;52.90;;;;;;5054851;28;20269;-57
2023/11/06 08:39:22;;;;;;;2.72;1.23;;;18.10;53.00;;;;;;5055040;28;20198;-60
2023/11/06 08:41:51;;;;;;;1.40;1.10;;;18.10;53.00;;;;;;5054919;28;20194;-61
2023/11/06 08:44:18;;;;;;;2.63;0.90;;;18.10;53.00;;;;;;5054330;28;20227;-60
2023/11/06 08:46:45;;;;;;;1.75;1.10;;;18.10;53.00;;;;;;5054616;28;20192;-61
2023/11/06 08:49:13;;;;;;;3.15;1.10;;;18.10;53.10;;;;;;5054615;28;20219;-60
2023/11/06 08:51:41;;;;;;;3.15;1.08;;;18.10;53.10;;;;;;5054604;28;20591;-58
2023/11/06 08:54:08;;;;;;;2.15;1.05;;;18.10;53.20;;;;;;5054093;28;20717;-60
2023/11/06 08:56:35;;;;;;;1.92;1.00;;;18.10;53.20;;;;;;5054814;28;20223;-59
2023/11/06 08:59:04;;;;;;;2.58;1.00;;;18.00;53.20;;;;;;5054326;28;20678;-60
2023/11/06 09:01:30;;;;;;;1.58;0.82;;;18.00;53.20;;;;;;5053905;28;20302;-60
2023/11/06 09:03:57;;;;;;;2.63;1.40;;;18.00;53.30;;;;;;5054401;28;20290;-60
2023/11/06 09:06:25;;;;;;;3.70;1.02;;;18.00;53.30;;;;;;5054648;28;20247;-59
2023/11/06 09:08:52;;;;;;;2.97;1.30;;;18.00;53.30;;;;;;5053645;28;20685;-61
2023/11/06 09:11:19;;;;;;;2.10;1.17;;;18.00;53.20;;;;;;5054232;28;20218;-57
2023/11/06 09:13:46;;;;;;;3.80;1.30;;;18.10;53.30;;;;;;5054270;28;20187;-61
2023/11/06 09:16:14;;;;;;;2.03;1.00;;;18.10;53.30;;;;;;5053670;28;20891;-60
2023/11/06 09:18:41;;;;;;;2.58;1.13;;;18.20;53.30;;;;;;5054186;28;20569;-59
2023/11/06 09:21:13;;;;;;;1.92;1.10;;;18.20;53.40;;;;;;5053859;28;20211;-61
2023/11/06 09:23:40;;;;;;;1.83;1.10;;;18.20;53.20;;;;;;5053728;28;20191;-60
2023/11/06 09:26:10;;;;;;;1.58;0.90;;;18.20;53.30;;;;;;5053944;28;20694;-59
2023/11/06 09:28:38;;;;;;;2.47;1.30;;;18.20;53.30;;;;;;5053915;28;20233;-59
2023/11/06 09:31:05;;;;;;;1.80;1.10;;;18.20;53.30;;;;;;5053809;28;20250;-61
2023/11/06 09:33:33;;;;;;;4.85;1.17;;;18.20;53.30;;;;;;5053847;28;20278;-60
2023/11/06 09:36:01;;;;;;;3.33;1.45;;;18.10;53.30;;;;;;5054029;28;20230;-62
2023/11/06 09:38:28;;;;;;;2.95;1.05;;;18.10;53.30;;;;;;5053176;28;20646;-61
2023/11/06 09:40:55;;;;;;;1.73;1.05;;;18.10;53.40;;;;;;5053898;28;20269;-62
2023/11/06 09:43:23;;;;;;;3.03;1.38;;;18.10;53.40;;;;;;5052594;28;20215;-61
2023/11/06 09:45:51;;;;;;;3.67;1.25;;;18.00;53.50;;;;;;5053240;28;20222;-60
2023/11/06 09:48:19;;;;;;;3.70;1.25;;;18.00;53.50;;;;;;5053567;28;20191;-61
2023/11/06 09:50:50;;;;;;;5.20;1.33;;;18.00;53.50;;;;;;5053494;28;20302;-60
2023/11/06 09:53:18;;;;;;;3.38;0.88;;;18.00;53.60;;;;;;5053107;28;20183;-60
2023/11/06 09:55:46;;;;;;;1.90;1.10;;;18.00;53.70;;;;;;5053287;28;20303;-60
2023/11/06 09:58:13;;;;;;;3.38;1.50;;;18.00;53.70;;;;;;5053428;28;20192;-60
2023/11/06 10:00:40;;;;;;;3.58;1.20;;;18.10;54.00;;;;;;5053080;28;20307;-61
2023/11/06 10:03:07;;;;;;;2.75;1.13;;;18.10;54.00;;;;;;5052973;28;20227;-59
2023/11/06 10:05:34;;;;;;;5.18;1.52;;;18.20;53.70;;;;;;5053446;28;20580;-60
2023/11/06 10:08:04;;;;;;;2.83;1.20;;;18.30;53.70;;;;;;5052791;28;20198;-55
2023/11/06 10:10:32;;;;;;;6.70;1.60;;;18.30;53.70;;;;;;5053160;28;20241;-60
2023/11/06 10:13:06;;;;;;;3.92;1.27;;;18.30;53.70;;;;;;5053113;28;20202;-59
2023/11/06 10:15:33;;;;;;;3.42;1.52;;;18.40;54.20;;;;;;5053031;28;20211;-61
2023/11/06 10:18:13;;;;;;;4.82;1.60;;;18.40;54.30;;;;;;5052924;28;20624;-59
2023/11/06 10:20:44;;;;;;;3.63;1.60;;;18.40;54.30;;;;;;5052692;28;20326;-60
2023/11/06 10:23:21;;;;;;;4.72;1.52;;;18.40;54.60;;;;;;5052835;28;20190;-56
2023/11/06 10:25:48;;;;;;;5.47;1.73;;;18.40;54.80;;;;;;5053085;28;20218;-60
2023/11/06 10:28:19;;;;;;;13.13;1.73;;;18.40;54.90;;;;;;5052251;28;20279;-58
2023/11/06 10:30:47;;;;;;;7.43;1.38;;;18.40;55.20;;;;;;5052864;28;20231;-61
2023/11/06 10:33:15;;;;;;;11.23;1.70;;;18.50;55.40;;;;;;5052419;28;20190;-61
2023/11/06 10:35:42;;;;;;;9.65;1.75;;;18.50;55.30;;;;;;5052606;28;20314;-62
2023/11/06 10:38:25;;;;;;;12.13;1.58;;;18.50;55.50;;;;;;5052685;28;20271;-60
2023/11/06 10:40:54;;;;;;;11.15;1.50;;;18.50;55.70;;;;;;5052785;28;20323;-61
2023/11/06 10:43:21;;;;;;;9.48;1.52;;;18.50;55.80;;;;;;5052268;28;20282;-58
2023/11/06 10:45:49;;;;;;;3.85;1.60;;;18.50;55.90;;;;;;5052631;28;20222;-60
2023/11/06 10:48:22;;;;;;;5.57;1.50;;;18.50;56.00;;;;;;5052601;28;20641;-60
2023/11/06 10:50:49;;;;;;;6.93;1.75;;;18.50;55.90;;;;;;5052206;28;20313;-62
2023/11/06 10:53:18;;;;;;;5.57;1.42;;;18.60;55.90;;;;;;5051875;28;20242;-59
2023/11/06 10:55:46;;;;;;;2.83;1.63;;;18.60;55.80;;;;;;5052425;28;20319;-59
2023/11/06 10:58:16;;;;;;;3.08;1.40;;;18.60;55.70;;;;;;5052132;28;20287;-59
2023/11/06 11:00:45;;;;;;;5.03;1.42;;;18.60;55.60;;;;;;5052507;28;20298;-60
2023/11/06 11:03:14;;;;;;;3.75;1.55;;;18.60;55.50;;;;;;5052001;28;20253;-60
2023/11/06 11:05:42;;;;;;;3.03;1.42;;;18.60;55.50;;;;;;5051663;28;20219;-60
2023/11/06 11:08:10;;;;;;;4.30;1.40;;;18.50;55.40;;;;;;5052566;28;20611;-60
2023/11/06 11:10:38;;;;;;;4.18;1.50;;;18.50;55.30;;;;;;5051905;28;20693;-60
2023/11/06 11:13:06;;;;;;;3.22;1.30;;;18.50;55.30;;;;;;5051803;28;20211;-59
2023/11/06 11:15:35;;;;;;;3.63;1.33;;;18.50;55.30;;;;;;5052315;28;20302;-59
2023/11/06 11:18:04;;;;;;;8.13;1.33;;;18.50;55.30;;;;;;5051859;28;20853;-61
2023/11/06 11:20:53;;;;;;;8.85;1.70;;;18.50;55.20;;;;;;5051629;28;20721;-60
2023/11/06 11:23:37;;;;;;;3.95;1.30;;;18.50;55.20;;;;;;5052387;28;20219;-60
2023/11/06 11:26:04;;;;;;;4.78;1.95;;;18.50;55.10;;;;;;5052292;28;20575;-59
2023/11/06 11:28:52;;;;;;;4.93;1.92;;;18.50;55.10;;;;;;5051797;28;20278;-59
2023/11/06 11:31:34;;;;;;;2.63;1.45;;;18.50;55.10;;;;;;5052348;28;20219;-60
2023/11/06 11:34:02;;;;;;;3.42;1.40;;;18.40;55.10;;;;;;5052045;28;20226;-61
2023/11/06 11:36:33;;;;;;;5.43;1.50;;;18.50;55.10;;;;;;5051926;28;20306;-59
2023/11/06 11:39:01;;;;;;;4.78;1.52;;;18.40;55.10;;;;;;5051802;28;20194;-60
2023/11/06 11:41:28;;;;;;;3.35;1.50;;;18.40;55.10;;;;;;5052144;28;20285;-60
2023/11/06 11:44:07;;;;;;;5.32;1.27;;;18.40;55.10;;;;;;5051687;28;20192;-59
2023/11/06 11:46:54;;;;;;;5.10;1.35;;;18.40;55.10;;;;;;5052006;28;20258;-60
2023/11/06 11:49:40;;;;;;;4.53;1.77;;;18.40;55.10;;;;;;5051647;28;20243;-57
2023/11/06 11:52:08;;;;;;;3.75;1.50;;;18.40;55.10;;;;;;5051640;28;20191;-60
2023/11/06 11:54:37;;;;;;;7.05;1.50;;;18.30;55.00;;;;;;5051897;28;20231;-60
2023/11/06 11:57:05;;;;;;;3.03;1.40;;;18.30;55.00;;;;;;5051372;28;20708;-56
2023/11/06 11:59:39;;;;;;;2.55;1.10;;;18.20;55.00;;;;;;5051614;28;20603;-60
2023/11/06 12:02:09;;;;;;;4.50;2.22;;;18.20;55.00;;;;;;5051580;28;20312;-60
2023/11/06 12:04:36;;;;;;;5.03;1.50;;;18.20;55.10;;;;;;5051991;28;20200;-60
2023/11/06 12:07:05;;;;;;;2.03;1.25;;;18.20;55.00;;;;;;5054713;28;20714;-60
2023/11/06 12:09:47;;;;;;;2.75;1.40;;;18.20;55.00;;;;;;5055457;28;20213;-58
2023/11/06 12:12:22;;;;;;;4.47;1.40;;;18.30;55.00;;;;;;5055160;28;20188;-60
2023/11/06 12:14:49;;;;;;;4.70;1.63;;;18.20;54.90;;;;;;5055322;28;20188;-60
2023/11/06 12:17:30;;;;;;;3.72;1.40;;;18.20;54.90;;;;;;5055288;28;20288;-60
2023/11/06 12:20:00;;;;;;;4.13;1.40;;;18.20;54.90;;;;;;5054977;28;20278;-56
2023/11/06 12:22:28;;;;;;;3.17;1.50;;;18.20;54.90;;;;;;5055269;28;20188;-57
2023/11/06 12:24:56;;;;;;;4.25;1.58;;;18.20;55.50;;;;;;5055172;28;20188;-59
2023/11/06 12:27:33;;;;;;;3.55;1.38;;;18.20;54.90;;;;;;5054574;28;20653;-60
2023/11/06 12:30:01;;;;;;;3.58;1.38;;;18.20;54.90;;;;;;5054749;28;20222;-59
2023/11/06 12:32:30;;;;;;;5.30;1.52;;;18.20;54.90;;;;;;5054753;28;20580;-59
2023/11/06 12:35:11;;;;;;;5.55;1.75;;;18.20;55.50;;;;;;5054249;28;20627;-61
2023/11/06 12:37:51;;;;;;;3.90;1.30;;;18.30;54.90;;;;;;5054708;28;20560;-58
2023/11/06 12:40:20;;;;;;;3.03;1.25;;;18.30;54.80;;;;;;5054936;28;20222;-61
2023/11/06 12:42:48;;;;;;;3.13;1.30;;;18.30;54.60;;;;;;5054544;28;20203;-58
2023/11/06 12:45:34;;;;;;;1.52;1.27;;;18.30;54.50;;;;;;5054486;28;20740;-60
2023/11/06 12:48:20;;;;;;;3.63;1.50;;;18.40;54.60;;;;;;5054814;28;20188;-60
2023/11/06 12:51:04;;;;;;;5.45;1.42;;;18.40;54.60;;;;;;5054407;28;20600;-61